Time;durP1;ratioP1;P1;durP2;ratioP2;P2;SDS_P1;SDS_P2;PMS_P1;PMS_P2;Temp;Humidity;BMP_temperature;BMP_pressure;BME280_temperature;BME280_humidity;BME280_pressure;Samples;Min_cycle;Max_cycle;Signal;HPM_P1;HPM_P2
2023/12/30 00:00:36;;;;;;;5.50;3.10;;;;;;;9.17;74.65;99590.14;129951;1260;127822;-74
2023/12/30 00:03:58;;;;;;;3.60;2.60;;;;;;;9.10;74.92;99589.79;130191;1259;114789;-74
2023/12/30 00:07:00;;;;;;;5.30;2.30;;;;;;;9.06;74.88;99591.60;130276;1260;114731;-76
2023/12/30 00:10:02;;;;;;;5.10;2.60;;;;;;;9.02;74.89;99589.11;130289;1278;116335;-75
2023/12/30 00:13:04;;;;;;;3.70;1.70;;;;;;;9.01;74.98;99594.03;129923;1272;116244;-77
2023/12/30 00:16:06;;;;;;;5.20;3.20;;;;;;;9.02;75.18;99593.43;130260;1260;115209;-76
2023/12/30 00:19:08;;;;;;;3.70;2.30;;;;;;;9.04;75.36;99589.94;130319;1264;114750;-74
2023/12/30 00:22:11;;;;;;;3.30;1.70;;;;;;;9.06;75.38;99588.95;130179;1264;127497;-76
2023/12/30 00:25:14;;;;;;;3.60;1.90;;;;;;;9.08;75.22;99590.77;130224;1259;115405;-75
2023/12/30 00:28:16;;;;;;;3.40;2.30;;;;;;;9.11;75.24;99584.19;130227;1259;114730;-72
2023/12/30 00:31:24;;;;;;;4.20;2.10;;;;;;;9.14;75.23;99582.95;130197;1263;115292;-75
2023/12/30 00:34:26;;;;;;;2.70;1.60;;;;;;;9.17;75.13;99582.98;130200;1263;114702;-75
2023/12/30 00:37:28;;;;;;;3.10;2.00;;;;;;;9.18;75.06;99574.71;130186;1258;114804;-72
2023/12/30 00:40:30;;;;;;;3.20;1.80;;;;;;;9.16;74.70;99557.38;130250;1278;114804;-75
2023/12/30 00:43:32;;;;;;;3.50;2.20;;;;;;;9.10;74.80;99554.65;129887;1259;126905;-74
2023/12/30 00:46:35;;;;;;;3.10;2.10;;;;;;;9.05;74.66;99559.55;130364;1260;115343;-73
2023/12/30 00:49:37;;;;;;;2.70;1.50;;;;;;;8.99;74.60;99560.12;130419;1261;114815;-74
2023/12/30 00:52:39;;;;;;;2.60;1.70;;;;;;;8.93;74.68;99561.65;129958;1263;114762;-74
2023/12/30 00:55:41;;;;;;;3.30;1.70;;;;;;;8.91;74.81;99563.58;130211;1260;115652;-75
2023/12/30 00:58:43;;;;;;;2.80;1.50;;;;;;;8.90;74.78;99568.20;130223;1277;114916;-74
2023/12/30 01:01:45;;;;;;;3.20;2.20;;;;;;;8.91;74.74;99567.11;130208;1260;114727;-75
2023/12/30 01:04:47;;;;;;;3.00;1.50;;;;;;;8.92;74.95;99570.46;130182;1260;115324;-76
2023/12/30 01:07:49;;;;;;;2.50;1.50;;;;;;;8.93;74.86;99572.68;130270;1271;116206;-75
2023/12/30 01:10:52;;;;;;;2.80;1.90;;;;;;;8.95;74.89;99571.16;130014;1278;114763;-72
2023/12/30 01:13:54;;;;;;;3.60;2.00;;;;;;;8.97;74.86;99571.92;130178;1261;114828;-74
2023/12/30 01:16:56;;;;;;;4.00;1.90;;;;;;;8.99;74.86;99571.84;130266;1259;114712;-68
2023/12/30 01:19:58;;;;;;;2.60;1.50;;;;;;;9.03;74.86;99577.53;129857;1263;114823;-74
2023/12/30 01:23:00;;;;;;;3.70;2.00;;;;;;;9.04;74.82;99572.62;130019;1259;115177;-75
2023/12/30 01:26:03;;;;;;;3.10;1.60;;;;;;;9.07;74.71;99570.35;130205;1271;114741;-75
2023/12/30 01:29:05;;;;;;;2.80;1.50;;;;;;;9.08;74.49;99570.30;129889;1278;127696;-74
2023/12/30 01:32:07;;;;;;;3.80;2.10;;;;;;;9.09;74.64;99569.15;130023;1259;114847;-75
2023/12/30 01:35:09;;;;;;;2.20;1.50;;;;;;;9.11;74.59;99565.83;129990;1262;114769;-77
2023/12/30 01:38:11;;;;;;;3.20;1.80;;;;;;;9.13;74.48;99566.98;129781;1265;114813;-78
2023/12/30 01:41:14;;;;;;;2.30;1.70;;;;;;;9.15;74.61;99561.89;130144;1255;114709;-75
2023/12/30 01:44:16;;;;;;;3.80;1.70;;;;;;;9.16;74.49;99556.15;130252;1277;114750;-76
2023/12/30 01:47:18;;;;;;;3.10;1.90;;;;;;;9.13;74.15;99552.76;129875;1263;114924;-75
2023/12/30 01:50:21;;;;;;;2.60;1.60;;;;;;;9.05;74.03;99543.89;130376;1260;114731;-76
2023/12/30 01:53:26;;;;;;;3.20;2.20;;;;;;;8.97;74.01;99546.81;130335;1260;114734;-73
2023/12/30 01:56:28;;;;;;;2.70;1.90;;;;;;;8.89;73.96;99548.52;130166;1260;114862;-74
2023/12/30 01:59:31;;;;;;;3.30;1.70;;;;;;;8.80;73.95;99548.63;130047;1262;114784;-74
2023/12/30 02:02:33;;;;;;;4.50;2.10;;;;;;;8.72;74.03;99545.86;130372;1259;114702;-75
2023/12/30 02:05:35;;;;;;;3.10;1.80;;;;;;;8.65;74.22;99544.84;130076;1260;114700;-73
2023/12/30 02:08:37;;;;;;;3.30;2.30;;;;;;;8.59;74.15;99544.95;130019;1268;114775;-69
2023/12/30 02:11:39;;;;;;;2.70;1.30;;;;;;;8.54;74.31;99542.02;130304;1260;114750;-74
2023/12/30 02:14:41;;;;;;;4.00;1.60;;;;;;;8.51;74.51;99538.27;129834;1272;114872;-76
2023/12/30 02:17:44;;;;;;;2.70;1.60;;;;;;;8.48;74.72;99532.70;130202;1269;114918;-72
2023/12/30 02:20:46;;;;;;;3.10;1.80;;;;;;;8.46;74.72;99529.06;130328;1276;114746;-70
2023/12/30 02:23:53;;;;;;;4.20;1.40;;;;;;;8.43;74.82;99517.86;130292;1277;114781;-71
2023/12/30 02:26:55;;;;;;;5.60;2.20;;;;;;;8.41;74.92;99516.15;130253;1261;114823;-70
2023/12/30 02:29:57;;;;;;;3.60;1.60;;;;;;;8.41;74.87;99520.11;130147;1267;115048;-69
2023/12/30 02:32:59;;;;;;;3.00;1.30;;;;;;;8.41;74.65;99524.69;130347;1278;114764;-70
2023/12/30 02:36:01;;;;;;;3.30;2.10;;;;;;;8.43;74.95;99521.95;130180;1258;115157;-71
2023/12/30 02:39:04;;;;;;;2.70;1.90;;;;;;;8.45;75.02;99521.63;130116;1258;116439;-73
2023/12/30 02:42:06;;;;;;;3.40;1.80;;;;;;;8.49;74.95;99518.81;130220;1277;114783;-74
2023/12/30 02:45:09;;;;;;;2.60;1.60;;;;;;;8.51;75.07;99516.38;130225;1277;115421;-72
2023/12/30 02:48:12;;;;;;;2.20;1.40;;;;;;;8.55;75.01;99527.77;130302;1263;114727;-74
2023/12/30 02:51:15;;;;;;;2.40;1.50;;;;;;;8.57;75.01;99527.45;130203;1260;115376;-67
2023/12/30 02:54:17;;;;;;;2.40;1.80;;;;;;;8.60;74.87;99525.15;130155;1270;114939;-75
2023/12/30 02:57:19;;;;;;;2.60;1.40;;;;;;;8.63;75.10;99529.06;130299;1261;114774;-75
2023/12/30 03:00:21;;;;;;;3.70;1.50;;;;;;;8.65;74.68;99522.94;129929;1264;114932;-75
2023/12/30 03:03:24;;;;;;;2.20;1.50;;;;;;;8.68;74.79;99524.58;130237;1261;115474;-75
2023/12/30 03:06:27;;;;;;;1.80;1.10;;;;;;;8.69;74.77;99528.08;130290;1268;115106;-74
2023/12/30 03:09:29;;;;;;;2.80;1.90;;;;;;;8.67;74.67;99529.06;130128;1260;114694;-75
2023/12/30 03:12:31;;;;;;;2.90;1.80;;;;;;;8.62;74.59;99521.63;130112;1268;114828;-76
2023/12/30 03:15:33;;;;;;;2.10;1.40;;;;;;;8.60;74.76;99526.76;130123;1254;114840;-68
2023/12/30 03:18:35;;;;;;;3.90;1.70;;;;;;;8.57;74.60;99529.06;130106;1260;114744;-72
2023/12/30 03:21:37;;;;;;;2.40;1.40;;;;;;;8.53;74.61;99527.33;130273;1259;115419;-72
2023/12/30 03:24:39;;;;;;;2.80;1.40;;;;;;;8.47;75.05;99530.10;130345;1260;114728;-73
2023/12/30 03:27:41;;;;;;;2.70;1.90;;;;;;;8.42;74.88;99524.69;130214;1266;114805;-74
2023/12/30 03:30:44;;;;;;;3.70;2.00;;;;;;;8.41;74.89;99530.23;130244;1260;114796;-75
2023/12/30 03:33:46;;;;;;;3.60;1.30;;;;;;;8.39;74.85;99529.80;130190;1270;114716;-77
2023/12/30 03:36:48;;;;;;;2.40;1.40;;;;;;;8.35;75.03;99527.68;130283;1260;114745;-74
2023/12/30 03:39:51;;;;;;;3.00;1.50;;;;;;;8.29;74.87;99525.33;129928;1260;114719;-75
2023/12/30 03:42:54;;;;;;;2.70;2.10;;;;;;;8.22;75.01;99535.64;129856;1263;114837;-74
2023/12/30 03:45:56;;;;;;;3.40;1.60;;;;;;;8.16;74.96;99532.94;130122;1258;114679;-74
2023/12/30 03:48:58;;;;;;;2.30;1.50;;;;;;;8.12;75.41;99522.13;130206;1260;114713;-75
2023/12/30 03:52:00;;;;;;;2.60;1.50;;;;;;;8.10;75.35;99523.14;130176;1255;114783;-75
2023/12/30 03:55:03;;;;;;;2.90;1.40;;;;;;;8.11;75.33;99531.46;129948;1260;114744;-71
2023/12/30 03:58:05;;;;;;;5.00;2.00;;;;;;;8.12;75.54;99532.42;130331;1260;114744;-70
2023/12/30 04:01:07;;;;;;;2.40;1.50;;;;;;;8.15;75.60;99530.71;130402;1269;114676;-74
2023/12/30 04:04:09;;;;;;;2.90;1.70;;;;;;;8.17;75.36;99529.17;130273;1260;114786;-73
2023/12/30 04:07:11;;;;;;;2.20;1.30;;;;;;;8.19;75.41;99532.27;130278;1261;114647;-67
2023/12/30 04:10:15;;;;;;;2.60;1.20;;;;;;;8.19;75.26;99530.64;130339;1277;114999;-68
2023/12/30 04:13:17;;;;;;;1.80;1.10;;;;;;;8.19;75.45;99536.51;130049;1263;116371;-74
2023/12/30 04:16:19;;;;;;;3.50;1.40;;;;;;;8.18;75.34;99541.58;130216;1269;114834;-75
2023/12/30 04:19:21;;;;;;;2.90;1.90;;;;;;;8.16;75.40;99550.05;130247;1271;114740;-70
2023/12/30 04:22:25;;;;;;;3.90;2.50;;;;;;;8.18;75.31;99562.71;129844;1271;114895;-74
2023/12/30 04:25:27;;;;;;;2.40;1.80;;;;;;;8.20;75.59;99580.20;130008;1261;115055;-75
2023/12/30 04:28:30;;;;;;;3.20;2.00;;;;;;;8.22;75.97;99588.30;130172;1261;114770;-69
2023/12/30 04:31:32;;;;;;;2.70;1.60;;;;;;;8.25;76.42;99596.02;130167;1254;114746;-68
2023/12/30 04:34:34;;;;;;;2.60;1.80;;;;;;;8.25;76.86;99606.85;130191;1254;114773;-74
2023/12/30 04:37:36;;;;;;;2.10;1.40;;;;;;;8.24;77.11;99618.66;130132;1270;114792;-73
2023/12/30 04:40:38;;;;;;;3.30;1.90;;;;;;;8.21;77.04;99621.98;130253;1273;116332;-75
2023/12/30 04:43:41;;;;;;;2.50;1.50;;;;;;;8.18;77.04;99626.23;130222;1269;114694;-76
2023/12/30 04:46:43;;;;;;;3.60;1.60;;;;;;;8.14;77.23;99618.95;130304;1260;115176;-77
2023/12/30 04:49:45;;;;;;;1.90;0.80;;;;;;;8.10;77.20;99623.80;130309;1260;115176;-76
2023/12/30 04:52:47;;;;;;;1.70;0.90;;;;;;;8.07;77.24;99633.71;129860;1270;114937;-76
2023/12/30 04:55:49;;;;;;;1.50;0.50;;;;;;;8.06;77.36;99638.03;130188;1260;114808;-73
2023/12/30 04:58:51;;;;;;;1.70;1.00;;;;;;;8.05;77.68;99643.95;130365;1260;114764;-76
2023/12/30 05:01:54;;;;;;;1.40;0.90;;;;;;;8.04;77.96;99651.81;129873;1261;127880;-71
2023/12/30 05:04:56;;;;;;;1.40;0.70;;;;;;;8.03;78.15;99660.41;130146;1260;114811;-74
2023/12/30 05:07:58;;;;;;;1.80;0.80;;;;;;;8.02;78.22;99666.30;130195;1260;114722;-70
2023/12/30 05:11:06;;;;;;;3.70;1.80;;;;;;;8.01;78.60;99660.31;130277;1271;114725;-72
2023/12/30 05:14:08;;;;;;;1.40;0.50;;;;;;;7.98;78.60;99664.00;129969;1254;115353;-70
2023/12/30 05:17:10;;;;;;;2.20;1.20;;;;;;;7.97;78.97;99653.61;130167;1260;114741;-74
2023/12/30 05:20:12;;;;;;;1.20;0.50;;;;;;;7.94;79.07;99633.81;130240;1260;114832;-70
2023/12/30 05:23:14;;;;;;;2.10;0.50;;;;;;;7.92;79.25;99637.33;130228;1259;128956;-78
2023/12/30 05:26:17;;;;;;;2.40;0.80;;;;;;;7.87;79.74;99628.49;129982;1277;115260;-74
2023/12/30 05:29:19;;;;;;;4.00;2.50;;;;;;;7.82;79.64;99619.82;130322;1257;115000;-73
2023/12/30 05:32:21;;;;;;;4.50;2.90;;;;;;;7.79;80.17;99619.45;130176;1260;114737;-77
2023/12/30 05:35:23;;;;;;;1.70;1.10;;;;;;;7.75;80.42;99616.25;130242;1277;114787;-72
2023/12/30 05:38:26;;;;;;;1.10;0.50;;;;;;;7.73;80.43;99621.52;130335;1259;114750;-75
2023/12/30 05:41:28;;;;;;;1.30;0.40;;;;;;;7.71;81.01;99619.48;130131;1259;114820;-76
2023/12/30 05:44:30;;;;;;;1.60;0.80;;;;;;;7.67;80.47;99622.70;130236;1254;115130;-78
2023/12/30 05:47:32;;;;;;;3.60;1.30;;;;;;;7.60;80.85;99624.09;130349;1261;116387;-75
2023/12/30 05:50:34;;;;;;;7.60;4.40;;;;;;;7.51;80.75;99631.46;129903;1259;116513;-77
2023/12/30 05:53:36;;;;;;;19.00;9.20;;;;;;;7.38;80.46;99633.48;130401;1260;115195;-77
2023/12/30 05:56:39;;;;;;;27.50;13.20;;;;;;;7.26;80.55;99635.67;130369;1260;115262;-79
2023/12/30 05:59:41;;;;;;;18.10;11.70;;;;;;;7.10;80.48;99641.15;129826;1254;114750;-78
2023/12/30 06:02:44;;;;;;;10.90;7.20;;;;;;;6.94;80.53;99643.84;130179;1260;115359;-77
2023/12/30 06:05:46;;;;;;;15.20;11.10;;;;;;;6.79;80.81;99645.77;130155;1254;114724;-77
2023/12/30 06:08:48;;;;;;;13.20;9.50;;;;;;;6.64;80.97;99641.80;130233;1254;115426;-79
2023/12/30 06:11:50;;;;;;;11.50;9.10;;;;;;;6.51;81.28;99638.46;130235;1254;115055;-77
2023/12/30 06:14:52;;;;;;;12.10;9.30;;;;;;;6.41;81.47;99641.91;130271;1258;115267;-76
2023/12/30 06:17:54;;;;;;;6.40;5.50;;;;;;;6.31;81.99;99645.70;130253;1259;114734;-73
2023/12/30 06:21:00;;;;;;;7.70;4.10;;;;;;;6.25;82.43;99643.98;129896;1256;114757;-75
2023/12/30 06:24:02;;;;;;;21.00;13.20;;;;;;;6.21;82.69;99650.70;130251;1259;115219;-74
2023/12/30 06:27:04;;;;;;;15.40;9.70;;;;;;;6.18;82.98;99654.55;130158;1258;114791;-75
2023/12/30 06:30:07;;;;;;;19.20;11.00;;;;;;;6.14;82.88;99655.42;130249;1260;114738;-72
2023/12/30 06:33:10;;;;;;;18.10;10.40;;;;;;;6.11;83.13;99662.31;129864;1265;115623;-73
2023/12/30 06:36:20;;;;;;;10.30;6.70;;;;;;;6.08;83.42;99671.64;130277;1268;114898;-72
2023/12/30 06:39:23;;;;;;;3.50;1.50;;;;;;;6.10;84.18;99680.10;130242;1260;114724;-68
2023/12/30 06:42:25;;;;;;;2.30;1.80;;;;;;;6.14;84.54;99666.09;130184;1256;115961;-75
2023/12/30 06:45:27;;;;;;;1.20;0.90;;;;;;;6.19;84.62;99678.15;130196;1268;114753;-73
2023/12/30 06:48:29;;;;;;;3.10;1.40;;;;;;;6.21;84.17;99678.58;130270;1270;115279;-78
2023/12/30 06:51:31;;;;;;;4.00;1.80;;;;;;;6.21;84.07;99680.33;129844;1277;116579;-74
2023/12/30 06:54:33;;;;;;;4.10;2.00;;;;;;;6.20;83.93;99683.92;130280;1277;114718;-74
2023/12/30 06:57:35;;;;;;;5.10;3.20;;;;;;;6.18;84.12;99694.84;130379;1277;114762;-67
2023/12/30 07:00:37;;;;;;;2.30;1.30;;;;;;;6.15;84.35;99703.81;129968;1259;114784;-75
2023/12/30 07:03:40;;;;;;;2.20;0.90;;;;;;;6.15;84.67;99725.60;130160;1261;114740;-75
2023/12/30 07:06:42;;;;;;;1.30;0.60;;;;;;;6.21;85.12;99775.37;130140;1261;114840;-78
2023/12/30 07:09:44;;;;;;;1.00;0.50;;;;;;;6.28;85.31;99827.77;129883;1264;127749;-76
2023/12/30 07:12:46;;;;;;;2.40;1.50;;;;;;;6.27;84.84;99835.79;130323;1254;114818;-75
2023/12/30 07:15:50;;;;;;;2.00;0.70;;;;;;;6.22;84.66;99838.11;130294;1260;115221;-79
2023/12/30 07:18:52;;;;;;;3.20;1.80;;;;;;;6.17;84.47;99843.09;129949;1259;115162;-78
2023/12/30 07:21:54;;;;;;;1.60;0.80;;;;;;;6.13;84.47;99848.90;130138;1260;115208;-71
2023/12/30 07:24:56;;;;;;;1.30;0.50;;;;;;;6.10;84.51;99857.00;130298;1259;114772;-79
2023/12/30 07:27:58;;;;;;;1.40;0.50;;;;;;;6.06;84.56;99864.05;129835;1277;115093;-73
2023/12/30 07:31:00;;;;;;;2.00;0.60;;;;;;;6.03;84.66;99874.10;130307;1259;115430;-78
2023/12/30 07:34:04;;;;;;;1.00;0.60;;;;;;;6.00;84.66;99877.58;129962;1256;114773;-76
2023/12/30 07:37:06;;;;;;;0.90;0.30;;;;;;;5.99;84.73;99869.63;130138;1259;114794;-77
2023/12/30 07:40:09;;;;;;;1.60;0.80;;;;;;;5.99;84.86;99876.02;130193;1259;114705;-74
2023/12/30 07:43:11;;;;;;;1.40;0.50;;;;;;;6.00;84.74;99882.02;130282;1278;114748;-71
2023/12/30 07:46:13;;;;;;;3.00;0.70;;;;;;;6.02;84.99;99889.39;130182;1261;115360;-78
2023/12/30 07:49:17;;;;;;;0.80;0.40;;;;;;;6.06;85.10;99902.37;129848;1259;114742;-71
2023/12/30 07:52:19;;;;;;;0.70;0.30;;;;;;;6.10;85.11;99908.45;129861;1263;127267;-74
2023/12/30 07:55:21;;;;;;;3.20;0.30;;;;;;;6.12;84.94;99913.33;130202;1277;114840;-74
2023/12/30 07:58:23;;;;;;;1.50;0.40;;;;;;;6.11;84.95;99914.23;130261;1254;115103;-74
2023/12/30 08:01:26;;;;;;;1.40;0.30;;;;;;;6.12;84.94;99920.05;129984;1254;114830;-76
2023/12/30 08:04:28;;;;;;;0.80;0.30;;;;;;;6.11;84.75;99920.45;130252;1259;114867;-69
2023/12/30 08:07:31;;;;;;;1.30;0.50;;;;;;;6.09;84.59;99919.28;129969;1269;114734;-67
2023/12/30 08:10:33;;;;;;;1.60;0.80;;;;;;;6.09;84.75;99915.73;130268;1259;114741;-74
2023/12/30 08:13:36;;;;;;;0.60;0.40;;;;;;;6.08;84.76;99917.34;130135;1277;114730;-74
2023/12/30 08:16:38;;;;;;;2.40;0.70;;;;;;;6.07;84.92;99910.84;129938;1260;114788;-75
2023/12/30 08:19:40;;;;;;;1.50;0.70;;;;;;;6.09;84.83;99895.52;130304;1261;114814;-76
2023/12/30 08:22:42;;;;;;;2.80;0.60;;;;;;;6.13;85.02;99908.86;129915;1262;114758;-72
2023/12/30 08:25:44;;;;;;;3.20;0.80;;;;;;;6.16;85.02;99892.41;130145;1259;114757;-74
2023/12/30 08:28:46;;;;;;;1.50;0.40;;;;;;;6.19;84.97;99905.10;130330;1259;114744;-70
2023/12/30 08:31:49;;;;;;;2.70;0.80;;;;;;;6.23;84.93;99910.25;130130;1259;115118;-74
2023/12/30 08:34:51;;;;;;;0.80;0.40;;;;;;;6.26;84.85;99906.41;129999;1275;114795;-68
2023/12/30 08:37:53;;;;;;;2.30;1.40;;;;;;;6.31;84.92;99911.52;129996;1275;114822;-72
2023/12/30 08:40:57;;;;;;;2.90;1.00;;;;;;;6.38;85.10;99905.95;130191;1259;114800;-70
2023/12/30 08:44:00;;;;;;;2.70;1.10;;;;;;;6.45;84.92;99903.20;130073;1259;114808;-75
2023/12/30 08:47:03;;;;;;;6.90;3.50;;;;;;;6.51;84.76;99898.53;130391;1259;115373;-80
2023/12/30 08:50:08;;;;;;;7.10;4.60;;;;;;;6.60;84.80;99900.48;130332;1257;115113;-79
2023/12/30 08:53:11;;;;;;;1.80;0.80;;;;;;;6.74;85.30;99907.21;130253;1277;128685;-79
2023/12/30 08:56:13;;;;;;;2.90;1.20;;;;;;;6.89;85.24;99906.96;130244;1277;114732;-77
2023/12/30 08:59:18;;;;;;;2.10;1.20;;;;;;;7.03;85.35;99911.20;130304;1254;114790;-79
2023/12/30 09:02:20;;;;;;;2.10;0.70;;;;;;;7.15;85.14;99921.52;129970;1262;114786;-79
2023/12/30 09:05:22;;;;;;;1.70;0.50;;;;;;;7.25;84.73;99925.36;129966;1259;114882;-76
2023/12/30 09:08:25;;;;;;;1.70;0.50;;;;;;;7.35;84.86;99924.08;130305;1259;114824;-82
2023/12/30 09:11:27;;;;;;;1.90;1.00;;;;;;;7.39;84.10;99921.07;129869;1264;127900;-85
2023/12/30 09:14:30;;;;;;;2.80;1.40;;;;;;;7.44;84.33;99927.94;130401;1277;115289;-83
2023/12/30 09:17:32;;;;;;;3.60;1.00;;;;;;;7.49;84.22;99929.54;129845;1260;115106;-78
2023/12/30 09:20:34;;;;;;;3.80;1.40;;;;;;;7.50;84.29;99934.64;130735;1259;115251;-80
2023/12/30 09:23:37;;;;;;;2.00;1.20;;;;;;;7.49;83.67;99935.21;130290;1256;114855;-79
2023/12/30 09:26:39;;;;;;;2.00;0.90;;;;;;;7.49;83.66;99944.09;130313;1259;114809;-81
2023/12/30 09:29:44;;;;;;;2.40;0.90;;;;;;;7.49;83.58;99937.52;129986;1277;114898;-76
2023/12/30 09:32:47;;;;;;;1.90;1.10;;;;;;;7.50;83.45;99947.25;130323;1259;114747;-80
2023/12/30 09:35:54;;;;;;;2.40;1.10;;;;;;;7.50;82.95;99954.52;130190;1277;114789;-82
2023/12/30 09:38:56;;;;;;;3.10;1.20;;;;;;;7.52;83.30;99951.98;130241;1254;114795;-83
2023/12/30 09:41:58;;;;;;;2.50;0.90;;;;;;;7.55;83.19;99952.20;130302;1259;114777;-82
2023/12/30 09:45:02;;;;;;;1.70;0.50;;;;;;;7.59;83.13;99950.96;130303;1259;114774;-83
2023/12/30 09:48:05;;;;;;;1.90;0.90;;;;;;;7.63;82.97;99951.15;130272;1254;128979;-82
2023/12/30 09:51:07;;;;;;;2.50;0.90;;;;;;;7.69;82.97;99951.25;129942;1259;114783;-83
2023/12/30 09:54:12;;;;;;;1.70;1.00;;;;;;;7.75;82.93;99950.98;130227;1259;114813;-82
2023/12/30 09:57:14;;;;;;;2.00;0.70;;;;;;;7.82;82.83;99950.66;129996;1263;114838;-82
2023/12/30 10:00:19;;;;;;;2.00;1.20;;;;;;;7.90;82.65;99953.87;130279;1259;114872;-83
2023/12/30 10:03:23;;;;;;;2.40;1.40;;;;;;;7.98;82.45;99958.52;130133;1259;128875;-82
2023/12/30 10:06:26;;;;;;;3.50;1.40;;;;;;;8.08;82.62;99962.70;130386;1259;114730;-84
2023/12/30 10:09:29;;;;;;;2.30;0.90;;;;;;;8.15;82.52;99958.10;130350;1259;114650;-79
2023/12/30 10:12:32;;;;;;;3.40;1.40;;;;;;;8.22;82.33;99964.01;130312;1254;115111;-75
2023/12/30 10:15:34;;;;;;;1.30;0.60;;;;;;;8.35;82.52;99969.67;130273;1259;114796;-78
2023/12/30 10:18:36;;;;;;;2.00;1.20;;;;;;;8.46;82.03;99963.13;130236;1259;114699;-71
2023/12/30 10:21:38;;;;;;;2.30;1.10;;;;;;;8.58;82.34;99963.13;130238;1278;128902;-79
2023/12/30 10:24:41;;;;;;;2.90;1.40;;;;;;;8.69;82.32;99959.41;130131;1259;115202;-77
2023/12/30 10:27:47;;;;;;;3.50;1.80;;;;;;;8.79;82.10;99961.95;130012;1261;114651;-74
2023/12/30 10:31:03;;;;;;;2.80;1.00;;;;;;;8.89;81.87;99958.45;130270;1254;115412;-76
2023/12/30 10:34:06;;;;;;;2.50;1.60;;;;;;;9.01;81.72;99958.95;130153;1254;114769;-71
2023/12/30 10:37:08;;;;;;;2.80;1.60;;;;;;;9.11;81.27;99963.47;130314;1257;115199;-84
2023/12/30 10:40:11;;;;;;;2.20;1.20;;;;;;;9.18;80.98;99965.80;130288;1254;114814;-77
2023/12/30 10:43:13;;;;;;;2.40;0.90;;;;;;;9.26;80.86;99974.14;130383;1257;114701;-81
2023/12/30 10:46:19;;;;;;;2.50;1.10;;;;;;;9.31;79.98;99976.02;129998;1277;114786;-80
2023/12/30 10:49:21;;;;;;;2.70;1.30;;;;;;;9.35;79.80;99978.51;129749;1260;114697;-80
2023/12/30 10:52:27;;;;;;;2.60;1.20;;;;;;;9.38;79.38;99981.39;130345;1258;114854;-80
2023/12/30 10:55:32;;;;;;;1.50;0.60;;;;;;;9.44;79.16;99991.44;130046;1271;128044;-78
2023/12/30 10:58:35;;;;;;;3.90;1.50;;;;;;;9.50;78.93;99990.42;130057;1259;115401;-77
2023/12/30 11:01:38;;;;;;;3.10;1.00;;;;;;;9.56;78.61;99999.36;130297;1257;114771;-77
2023/12/30 11:04:41;;;;;;;2.80;1.40;;;;;;;9.62;78.41;100003.38;130339;1256;114729;-79
2023/12/30 11:07:44;;;;;;;2.90;1.20;;;;;;;9.63;78.35;100010.64;129734;1277;114759;-76
2023/12/30 11:10:47;;;;;;;3.50;1.40;;;;;;;9.65;78.32;100018.73;129602;1259;527205;-78
2023/12/30 11:13:49;;;;;;;2.40;1.30;;;;;;;9.69;78.27;100018.52;130337;1259;114832;-77
2023/12/30 11:16:51;;;;;;;2.10;1.20;;;;;;;9.76;78.14;100020.86;130250;1254;115416;-79
2023/12/30 11:19:55;;;;;;;1.70;1.00;;;;;;;9.78;77.42;100025.61;130270;1254;114760;-77
2023/12/30 11:23:02;;;;;;;4.10;3.10;;;;;;;9.76;77.27;100026.58;129867;1259;114793;-77
2023/12/30 11:26:05;;;;;;;2.60;0.90;;;;;;;9.70;76.97;100024.91;129650;1261;116362;-78
2023/12/30 11:29:27;;;;;;;2.40;1.10;;;;;;;9.67;77.27;100024.36;130090;1259;114813;-77
2023/12/30 11:32:30;;;;;;;2.60;1.10;;;;;;;9.63;77.21;100027.58;130160;1278;114798;-77
2023/12/30 11:35:32;;;;;;;2.40;0.90;;;;;;;9.60;77.29;100031.81;130022;1258;114829;-76
2023/12/30 11:38:37;;;;;;;3.60;1.10;;;;;;;9.61;77.03;100028.74;129923;1259;114775;-77
2023/12/30 11:41:39;;;;;;;3.40;1.50;;;;;;;9.60;77.12;100029.17;130002;1256;115068;-78
2023/12/30 11:44:42;;;;;;;3.70;1.10;;;;;;;9.58;77.18;100027.80;129913;1257;114791;-76
2023/12/30 11:47:45;;;;;;;4.60;1.20;;;;;;;9.57;76.89;100027.16;130087;1259;114767;-75
2023/12/30 11:50:53;;;;;;;3.30;1.60;;;;;;;9.58;77.15;100028.19;130285;1259;115406;-78
2023/12/30 11:53:56;;;;;;;4.20;1.40;;;;;;;9.56;77.30;100025.04;129858;1257;114792;-76
2023/12/30 11:56:59;;;;;;;3.30;1.40;;;;;;;9.53;77.16;100021.13;129909;1262;114787;-69
2023/12/30 12:00:02;;;;;;;2.80;1.00;;;;;;;9.50;77.18;100018.95;130048;1259;114964;-76
2023/12/30 12:03:04;;;;;;;4.40;1.60;;;;;;;9.46;76.95;100016.45;130078;1260;114821;-74
2023/12/30 12:06:10;;;;;;;3.00;1.50;;;;;;;9.41;77.24;100015.98;130300;1259;114718;-72
2023/12/30 12:09:12;;;;;;;2.30;1.20;;;;;;;9.38;77.05;100014.86;130219;1258;114686;-73
2023/12/30 12:12:21;;;;;;;4.10;1.60;;;;;;;9.34;77.15;100015.09;130040;1260;115164;-76
2023/12/30 12:15:24;;;;;;;3.20;1.80;;;;;;;9.29;77.16;100015.32;129883;1254;114898;-74
2023/12/30 12:18:28;;;;;;;6.30;3.40;;;;;;;9.26;76.92;100013.19;129869;1263;127931;-72
2023/12/30 12:21:30;;;;;;;4.00;1.70;;;;;;;9.21;76.71;100009.83;130215;1270;114786;-75
2023/12/30 12:24:34;;;;;;;4.10;1.30;;;;;;;9.20;76.86;100007.94;130331;1259;114964;-75
2023/12/30 12:27:37;;;;;;;5.90;2.90;;;;;;;9.16;76.38;100006.89;129806;1259;114892;-75
2023/12/30 12:30:39;;;;;;;5.70;2.80;;;;;;;9.10;76.03;100007.88;129948;1258;114796;-75
2023/12/30 12:33:41;;;;;;;4.70;2.10;;;;;;;9.06;75.87;100009.30;130229;1277;114820;-74
2023/12/30 12:36:43;;;;;;;3.10;1.40;;;;;;;9.02;75.75;100013.96;130160;1256;114956;-75
2023/12/30 12:39:46;;;;;;;4.50;2.60;;;;;;;8.99;75.60;100016.24;129907;1277;128932;-75
2023/12/30 12:42:48;;;;;;;9.40;7.40;;;;;;;8.96;75.56;100016.70;130045;1259;114751;-73
2023/12/30 12:45:50;;;;;;;9.00;4.60;;;;;;;8.94;75.50;100013.05;130247;1259;114795;-75
2023/12/30 12:48:52;;;;;;;6.10;3.00;;;;;;;8.91;75.44;100006.27;130199;1261;114729;-75
2023/12/30 12:51:54;;;;;;;6.00;2.10;;;;;;;8.89;75.27;100004.59;130245;1258;114681;-69
2023/12/30 12:54:57;;;;;;;4.10;2.30;;;;;;;8.88;75.33;100006.60;130419;1273;114721;-71
2023/12/30 12:57:59;;;;;;;3.70;1.90;;;;;;;8.87;75.05;99998.64;130159;1259;115495;-69
2023/12/30 13:01:03;;;;;;;3.00;1.50;;;;;;;8.86;75.03;100004.55;130260;1259;114762;-71
2023/12/30 13:04:05;;;;;;;5.20;1.90;;;;;;;8.86;74.94;100009.73;130096;1255;114840;-71
2023/12/30 13:07:07;;;;;;;5.90;2.00;;;;;;;8.85;75.08;100014.23;130309;1258;115626;-68
2023/12/30 13:13:32;;;;;;;5.40;1.80;;;;;;;8.80;75.05;100008.90;130129;1259;114790;-71
2023/12/30 13:16:36;;;;;;;5.00;1.50;;;;;;;8.78;75.09;100011.30;130327;1254;114713;-73
2023/12/30 13:19:39;;;;;;;4.40;2.40;;;;;;;8.77;75.14;100003.04;130165;1259;114788;-68
2023/12/30 13:22:42;;;;;;;6.70;2.00;;;;;;;8.74;75.39;100003.85;130295;1259;114786;-69
2023/12/30 13:25:47;;;;;;;4.20;2.10;;;;;;;8.73;75.40;100006.96;130295;1257;114809;-72
2023/12/30 13:28:57;;;;;;;4.70;1.60;;;;;;;8.71;75.48;100012.74;129918;1262;114685;-70
2023/12/30 13:32:03;;;;;;;5.30;2.00;;;;;;;8.69;75.19;100011.95;130264;1254;114715;-69
2023/12/30 13:35:06;;;;;;;8.50;4.20;;;;;;;8.66;75.25;100010.81;130164;1256;114767;-71
2023/12/30 13:38:14;;;;;;;11.00;6.60;;;;;;;8.62;75.80;100010.27;129988;1254;114785;-71
2023/12/30 13:41:16;;;;;;;7.00;2.60;;;;;;;8.58;75.46;100012.44;130238;1258;115353;-72
2023/12/30 13:44:19;;;;;;;4.70;2.20;;;;;;;8.51;75.46;100015.59;130266;1259;114687;-70
2023/12/30 13:50:34;;;;;;;6.70;2.80;;;;;;;8.35;75.28;100014.69;130323;1259;114810;-73
2023/12/30 13:53:37;;;;;;;6.50;3.30;;;;;;;8.29;75.28;100016.54;129858;1263;127667;-74
2023/12/30 13:56:42;;;;;;;6.60;3.00;;;;;;;8.25;75.72;100019.07;130201;1259;114811;-73
2023/12/30 13:59:45;;;;;;;4.20;1.50;;;;;;;8.18;75.16;100020.56;129689;1262;114791;-75
2023/12/30 14:02:48;;;;;;;4.70;1.60;;;;;;;8.14;75.37;100020.79;130166;1256;114820;-75
2023/12/30 14:05:51;;;;;;;5.70;1.60;;;;;;;8.08;75.36;100019.42;130230;1259;114728;-74
2023/12/30 14:08:54;;;;;;;3.70;1.30;;;;;;;8.03;75.39;100031.18;129919;1277;114872;-74
2023/12/30 14:12:01;;;;;;;3.90;1.70;;;;;;;8.00;75.32;100038.65;129970;1272;114735;-72